createdAt,value
2023-02-23T00:03:22.614Z,26.42
2023-02-23T00:10:05.676Z,25.30
2023-02-23T00:16:48.048Z,22.25
2023-02-23T00:23:30.759Z,23.73
2023-02-23T00:30:14.435Z,26.05
2023-02-23T00:36:56.756Z,25.90
2023-02-23T00:43:47.570Z,27.20
2023-02-23T00:50:29.956Z,26.33
2023-02-23T00:57:12.305Z,22.70
2023-02-23T01:03:54.647Z,27.25
2023-02-23T01:10:44.223Z,33.22
2023-02-23T01:17:27.567Z,28.25
2023-02-23T01:24:11.906Z,31.40
2023-02-23T01:30:54.317Z,27.30
2023-02-23T01:37:40.490Z,25.85
2023-02-23T01:44:29.707Z,25.38
2023-02-23T01:51:18.491Z,28.52
2023-02-23T01:58:15.302Z,29.33
2023-02-23T02:04:57.722Z,26.75
2023-02-23T02:11:46.363Z,28.30
2023-02-23T02:18:45.601Z,30.73
2023-02-23T02:25:52.666Z,27.58
2023-02-23T02:33:05.158Z,29.73
2023-02-23T02:40:16.239Z,32.60
2023-02-23T02:47:06.158Z,29.30
2023-02-23T02:54:10.552Z,31.23
2023-02-23T03:01:12.163Z,31.77
2023-02-23T03:08:40.304Z,31.58
2023-02-23T03:16:03.192Z,27.33
2023-02-23T03:23:37.300Z,31.27
2023-02-23T03:31:19.126Z,32.50
2023-02-23T03:38:32.385Z,30.00
2023-02-23T03:45:37.391Z,34.60
2023-02-23T03:52:47.503Z,35.35
2023-02-23T03:59:53.218Z,36.80
2023-02-23T04:06:57.790Z,31.40
2023-02-23T04:13:40.817Z,32.60
2023-02-23T04:20:24.352Z,34.78
2023-02-23T04:27:06.813Z,31.60
2023-02-23T04:33:49.142Z,37.50
2023-02-23T04:40:32.173Z,33.65
2023-02-23T04:47:15.986Z,34.42
2023-02-23T04:53:58.677Z,30.00
2023-02-23T05:00:41.453Z,35.75
2023-02-23T05:07:23.785Z,31.35
2023-02-23T05:14:06.189Z,36.78
2023-02-23T05:20:48.510Z,37.35
2023-02-23T05:27:32.477Z,39.45
2023-02-23T05:34:16.810Z,32.00
2023-02-23T05:40:59.100Z,35.20
2023-02-23T05:47:41.637Z,34.47
2023-02-23T05:54:23.946Z,31.38
2023-02-23T06:01:06.300Z,32.80
2023-02-23T06:07:48.622Z,44.75
2023-02-23T06:14:30.994Z,36.95
2023-02-23T06:21:13.302Z,32.15
2023-02-23T06:27:56.014Z,33.67
2023-02-23T06:34:38.424Z,32.67
2023-02-23T06:41:21.040Z,32.67
2023-02-23T06:48:04.215Z,36.95
2023-02-23T06:54:48.180Z,32.42
2023-02-23T07:01:30.979Z,32.90
2023-02-23T07:08:13.355Z,37.75
2023-02-23T07:14:55.656Z,35.80
2023-02-23T07:21:37.960Z,39.20
2023-02-23T07:28:21.162Z,35.22
2023-02-23T07:35:05.106Z,33.03
2023-02-23T07:41:47.414Z,35.72
2023-02-23T07:48:34.233Z,33.53
2023-02-23T07:55:16.865Z,28.75
2023-02-23T08:01:59.358Z,29.83
2023-02-23T08:08:41.636Z,27.88
2023-02-23T08:15:24.191Z,28.50
2023-02-23T08:22:09.827Z,31.52
2023-02-23T08:28:53.786Z,26.98
2023-02-23T08:35:36.110Z,27.85
2023-02-23T08:42:19.061Z,23.15
2023-02-23T08:49:01.460Z,19.60
2023-02-23T08:55:43.784Z,18.13
2023-02-23T09:02:27.437Z,17.55
2023-02-23T09:09:09.786Z,21.88
2023-02-23T09:15:52.353Z,18.92
2023-02-23T09:22:36.779Z,19.35
2023-02-23T09:29:19.664Z,23.08
2023-02-23T09:36:08.262Z,18.77
2023-02-23T09:43:08.680Z,17.58
2023-02-23T09:49:51.758Z,17.83
2023-02-23T09:56:46.834Z,16.92
2023-02-23T10:03:37.612Z,18.58
2023-02-23T10:10:22.771Z,14.15
2023-02-23T10:17:11.216Z,15.07
2023-02-23T10:24:01.765Z,14.88
2023-02-23T10:30:45.299Z,14.10
2023-02-23T10:37:28.366Z,12.20
2023-02-23T10:44:26.436Z,16.15
2023-02-23T10:51:20.173Z,16.67
2023-02-23T10:58:09.811Z,10.38
2023-02-23T11:04:56.735Z,11.75
2023-02-23T11:11:39.115Z,14.10
2023-02-23T11:18:26.347Z,13.65
2023-02-23T11:25:24.378Z,9.07
2023-02-23T11:32:13.467Z,9.82
2023-02-23T11:39:13.960Z,15.15
2023-02-23T11:45:59.024Z,7.13
2023-02-23T11:52:43.907Z,11.43
2023-02-23T11:59:34.099Z,19.70
2023-02-23T12:06:34.413Z,8.20
2023-02-23T12:13:34.874Z,16.05
2023-02-23T12:20:31.792Z,6.80
2023-02-23T12:27:41.471Z,4.47
2023-02-23T12:34:49.366Z,8.15
2023-02-23T12:41:34.825Z,8.98
2023-02-23T12:48:48.345Z,11.52
2023-02-23T12:55:40.102Z,8.05
2023-02-23T13:02:46.640Z,10.82
2023-02-23T13:10:03.345Z,7.25
2023-02-23T13:16:55.454Z,13.80
2023-02-23T13:23:54.758Z,10.23
2023-02-23T13:30:42.350Z,11.75
2023-02-23T13:37:32.134Z,13.25
2023-02-23T13:44:26.297Z,12.60
2023-02-23T13:51:35.317Z,10.50
2023-02-23T13:58:22.607Z,12.32
2023-02-23T14:05:21.260Z,15.25
2023-02-23T14:12:16.926Z,11.02
2023-02-23T14:19:24.999Z,6.97
2023-02-23T14:26:28.975Z,8.32
2023-02-23T14:33:33.929Z,8.40
2023-02-23T14:40:24.773Z,9.25
2023-02-23T14:47:11.938Z,7.38
2023-02-23T14:53:58.886Z,6.40
2023-02-23T15:00:42.714Z,8.73
2023-02-23T15:07:36.413Z,9.85
2023-02-23T15:14:27.400Z,8.18
2023-02-23T15:21:13.813Z,10.40
2023-02-23T15:27:56.402Z,10.50
2023-02-23T15:34:39.811Z,11.52
2023-02-23T15:41:30.063Z,6.75
2023-02-23T15:48:18.438Z,7.93
2023-02-23T15:55:10.041Z,8.55
2023-02-23T16:01:57.066Z,6.25
2023-02-23T16:08:56.913Z,11.80
2023-02-23T16:15:40.736Z,9.30
2023-02-23T16:22:26.375Z,9.65
2023-02-23T16:29:18.606Z,14.50
2023-02-23T16:36:23.554Z,10.32
2023-02-23T16:43:05.946Z,11.75
2023-02-23T16:49:48.509Z,10.60
2023-02-23T16:56:31.557Z,10.32
2023-02-23T17:03:23.710Z,11.73
2023-02-23T17:10:24.886Z,9.75
2023-02-23T17:17:15.009Z,13.68
2023-02-23T17:24:02.625Z,11.88
2023-02-23T17:30:46.201Z,9.88
2023-02-23T17:37:28.617Z,9.88
2023-02-23T17:44:11.375Z,12.13
2023-02-23T17:51:02.611Z,14.50
2023-02-23T17:57:46.056Z,14.18
2023-02-23T18:04:28.437Z,16.65
2023-02-23T18:11:11.256Z,16.20
2023-02-23T18:17:54.651Z,16.65
2023-02-23T18:24:38.129Z,15.60
2023-02-23T18:31:23.197Z,15.90
2023-02-23T18:38:10.328Z,16.80
2023-02-23T18:44:53.607Z,17.05
2023-02-23T18:51:36.158Z,19.60
2023-02-23T18:58:19.702Z,15.77
2023-02-23T19:05:03.049Z,15.57
2023-02-23T19:11:45.506Z,16.38
2023-02-23T19:18:27.947Z,17.17
2023-02-23T19:25:14.275Z,20.70
2023-02-23T19:31:57.077Z,23.23
2023-02-23T19:38:39.637Z,19.90
2023-02-23T19:45:22.434Z,21.75
2023-02-23T19:52:04.911Z,19.65
2023-02-23T19:58:49.166Z,16.60
2023-02-23T20:05:32.074Z,19.50
2023-02-23T20:12:14.389Z,22.05
2023-02-23T20:18:57.928Z,20.63
2023-02-23T20:25:42.074Z,22.58
2023-02-23T20:32:24.578Z,21.48
2023-02-23T20:39:09.321Z,22.05
2023-02-23T20:45:51.706Z,20.08
2023-02-23T20:52:34.058Z,23.17
2023-02-23T20:59:16.327Z,21.58
2023-02-23T21:05:58.632Z,24.77
2023-02-23T21:12:40.933Z,23.13
2023-02-23T21:19:23.584Z,22.02
2023-02-23T21:26:15.851Z,24.00
2023-02-23T21:32:59.402Z,20.30
2023-02-23T21:39:42.014Z,21.23
2023-02-23T21:46:24.799Z,25.02
2023-02-23T21:53:07.544Z,19.63
2023-02-23T21:59:50.238Z,22.63
2023-02-23T22:06:39.837Z,20.65
2023-02-23T22:13:22.212Z,22.42
2023-02-23T22:20:07.035Z,22.55
2023-02-23T22:26:55.294Z,25.88
2023-02-23T22:33:41.543Z,28.60
2023-02-23T22:40:24.157Z,23.58
2023-02-23T22:47:07.352Z,25.75
2023-02-23T22:53:49.732Z,27.50
2023-02-23T23:00:32.439Z,24.92
2023-02-23T23:07:14.804Z,26.45
2023-02-23T23:14:02.064Z,29.58
2023-02-23T23:20:44.461Z,27.58
2023-02-23T23:27:26.969Z,27.58
2023-02-23T23:34:11.267Z,33.17
2023-02-23T23:40:53.867Z,28.05
2023-02-23T23:47:36.229Z,28.45
2023-02-23T23:54:25.018Z,23.83
